createdAt,value
2022-12-25T00:00:47.822Z,19.50
2022-12-25T00:03:16.988Z,16.10
2022-12-25T00:05:46.481Z,19.70
2022-12-25T00:08:14.855Z,18.57
2022-12-25T00:10:45.613Z,20.87
2022-12-25T00:13:15.732Z,16.00
2022-12-25T00:15:43.964Z,18.40
2022-12-25T00:18:12.763Z,21.10
2022-12-25T00:20:41.132Z,15.77
2022-12-25T00:23:09.354Z,14.43
2022-12-25T00:25:40.939Z,12.20
2022-12-25T00:28:09.420Z,16.87
2022-12-25T00:30:41.141Z,13.57
2022-12-25T00:33:09.431Z,16.23
2022-12-25T00:35:38.331Z,13.27
2022-12-25T00:38:06.646Z,9.27
2022-12-25T00:40:35.119Z,12.13
2022-12-25T00:43:03.367Z,13.17
2022-12-25T00:45:33.803Z,11.70
2022-12-25T00:48:03.709Z,13.17
2022-12-25T00:50:32.358Z,9.37
2022-12-25T00:53:00.703Z,8.83
2022-12-25T00:55:29.259Z,8.77
2022-12-25T00:57:57.505Z,8.93
2022-12-25T01:00:25.839Z,6.77
2022-12-25T01:02:54.365Z,12.67
2022-12-25T01:05:24.305Z,10.23
2022-12-25T01:07:52.530Z,9.07
2022-12-25T01:10:22.633Z,3.53
2022-12-25T01:12:52.226Z,13.30
2022-12-25T01:15:21.031Z,7.57
2022-12-25T01:17:49.505Z,9.73
2022-12-25T01:20:19.319Z,8.17
2022-12-25T01:22:49.017Z,10.80
2022-12-25T01:25:17.490Z,8.33
2022-12-25T01:27:45.849Z,8.93
2022-12-25T01:30:14.583Z,8.07
2022-12-25T01:32:42.963Z,8.47
2022-12-25T01:35:12.156Z,6.60
2022-12-25T01:37:40.737Z,5.60
2022-12-25T01:40:11.257Z,9.30
2022-12-25T01:42:39.932Z,7.90
2022-12-25T01:45:38.346Z,10.83
2022-12-25T01:48:10.964Z,8.80
2022-12-25T01:50:43.365Z,10.50
2022-12-25T01:53:12.285Z,9.13
2022-12-25T01:55:43.688Z,11.57
2022-12-25T01:58:12.211Z,12.37
2022-12-25T02:00:40.672Z,7.67
2022-12-25T02:03:09.381Z,7.40
2022-12-25T02:05:38.114Z,10.27
2022-12-25T02:08:10.259Z,6.77
2022-12-25T02:10:39.930Z,5.90
2022-12-25T02:13:09.914Z,6.87
2022-12-25T02:15:47.058Z,10.63
2022-12-25T02:18:22.670Z,8.40
2022-12-25T02:21:12.338Z,6.63
2022-12-25T02:24:07.467Z,7.10
2022-12-25T02:26:58.797Z,9.20
2022-12-25T02:29:34.410Z,7.17
2022-12-25T02:32:14.662Z,8.07
2022-12-25T02:34:47.449Z,10.83
2022-12-25T02:37:24.741Z,12.07
2022-12-25T02:40:00.697Z,9.47
2022-12-25T02:42:54.325Z,12.40
2022-12-25T02:45:49.368Z,8.67
2022-12-25T02:48:37.196Z,9.93
2022-12-25T02:51:25.966Z,7.73
2022-12-25T02:54:15.234Z,6.73
2022-12-25T02:57:04.315Z,7.83
2022-12-25T02:59:53.935Z,6.47
2022-12-25T03:02:43.051Z,6.80
2022-12-25T03:05:32.135Z,5.20
2022-12-25T03:08:03.971Z,8.63
2022-12-25T03:10:53.816Z,6.07
2022-12-25T03:13:25.401Z,6.07
2022-12-25T03:16:12.781Z,5.10
2022-12-25T03:18:42.950Z,6.10
2022-12-25T03:21:29.030Z,6.83
2022-12-25T03:24:18.185Z,3.17
2022-12-25T03:26:56.482Z,3.20
2022-12-25T03:29:43.265Z,5.20
2022-12-25T03:32:20.409Z,6.23
2022-12-25T03:35:16.717Z,7.07
2022-12-25T03:38:12.307Z,4.20
2022-12-25T03:41:09.973Z,7.20
2022-12-25T03:44:03.033Z,4.33
2022-12-25T03:46:55.048Z,6.53
2022-12-25T03:49:43.616Z,11.07
2022-12-25T03:52:34.779Z,4.87
2022-12-25T03:55:27.947Z,2.83
2022-12-25T03:58:13.767Z,7.30
2022-12-25T04:00:59.701Z,8.13
2022-12-25T04:03:45.221Z,15.23
2022-12-25T04:06:34.800Z,8.83
2022-12-25T04:09:21.982Z,18.43
2022-12-25T04:12:08.258Z,10.13
2022-12-25T04:15:33.970Z,5.07
2022-12-25T04:19:00.787Z,5.27
2022-12-25T04:22:26.191Z,9.43
2022-12-25T04:25:53.323Z,6.60
2022-12-25T04:28:48.022Z,4.13
2022-12-25T04:31:34.241Z,10.53
2022-12-25T04:34:19.644Z,5.43
2022-12-25T04:36:48.872Z,6.87
2022-12-25T04:39:17.151Z,8.33
2022-12-25T04:41:46.721Z,6.93
2022-12-25T04:44:15.304Z,9.97
2022-12-25T04:46:43.841Z,5.50
2022-12-25T04:49:12.127Z,6.77
2022-12-25T04:51:41.164Z,9.00
2022-12-25T04:54:09.411Z,6.77
2022-12-25T04:56:43.379Z,6.03
2022-12-25T04:59:15.801Z,5.87
2022-12-25T05:01:43.999Z,5.33
2022-12-25T05:04:12.502Z,5.73
2022-12-25T05:06:41.847Z,6.43
2022-12-25T05:09:11.120Z,7.47
2022-12-25T05:11:39.371Z,7.57
2022-12-25T05:14:07.885Z,8.40
2022-12-25T05:16:37.775Z,9.80
2022-12-25T05:19:06.031Z,6.67
2022-12-25T05:21:34.836Z,10.00
2022-12-25T05:24:03.056Z,4.60
2022-12-25T05:26:31.222Z,4.67
2022-12-25T05:29:01.273Z,7.50
2022-12-25T05:31:29.557Z,6.73
2022-12-25T05:33:59.172Z,4.43
2022-12-25T05:36:27.578Z,5.60
2022-12-25T05:38:56.154Z,6.43
2022-12-25T05:41:26.809Z,8.10
2022-12-25T05:43:57.725Z,8.07
2022-12-25T05:46:25.949Z,6.50
2022-12-25T05:48:54.216Z,4.80
2022-12-25T05:51:25.989Z,5.53
2022-12-25T05:53:54.259Z,4.73
2022-12-25T05:56:22.493Z,5.70
2022-12-25T05:58:51.853Z,4.27
2022-12-25T06:01:22.563Z,7.00
2022-12-25T06:03:50.960Z,7.63
2022-12-25T06:06:19.653Z,5.87
2022-12-25T06:08:49.251Z,7.27
2022-12-25T06:11:17.725Z,6.77
2022-12-25T06:13:50.333Z,7.17
2022-12-25T06:16:18.906Z,4.70
2022-12-25T06:18:52.045Z,10.20
2022-12-25T06:21:20.692Z,4.93
2022-12-25T06:23:50.622Z,7.90
2022-12-25T06:26:21.175Z,4.90
2022-12-25T06:28:49.920Z,7.60
2022-12-25T06:31:20.199Z,8.33
2022-12-25T06:33:49.442Z,7.93
2022-12-25T06:36:20.074Z,5.50
2022-12-25T06:38:51.042Z,7.40
2022-12-25T06:41:22.143Z,6.40
2022-12-25T06:43:52.346Z,8.53
2022-12-25T06:46:21.326Z,5.90
2022-12-25T06:48:50.309Z,8.23
2022-12-25T06:51:19.656Z,4.27
2022-12-25T06:53:50.132Z,4.23
2022-12-25T06:56:21.480Z,7.37
2022-12-25T06:58:51.651Z,5.10
2022-12-25T07:01:23.068Z,5.23
2022-12-25T07:03:54.094Z,4.93
2022-12-25T07:06:22.315Z,5.13
2022-12-25T07:08:52.406Z,7.03
2022-12-25T07:11:21.062Z,6.20
2022-12-25T07:13:49.774Z,7.37
2022-12-25T07:16:19.055Z,7.27
2022-12-25T07:18:47.600Z,7.43
2022-12-25T07:21:17.339Z,5.73
2022-12-25T07:23:47.280Z,8.00
2022-12-25T07:26:18.350Z,8.23
2022-12-25T07:28:47.113Z,6.90
2022-12-25T07:31:18.136Z,5.60
2022-12-25T07:33:46.559Z,8.30
2022-12-25T07:36:15.813Z,9.17
2022-12-25T07:38:44.747Z,9.47
2022-12-25T07:41:13.921Z,9.47
2022-12-25T07:43:43.897Z,10.20
2022-12-25T07:46:12.831Z,11.03
2022-12-25T07:48:41.092Z,7.97
2022-12-25T07:51:14.469Z,6.60
2022-12-25T07:53:43.465Z,7.60
2022-12-25T07:56:14.412Z,11.00
2022-12-25T07:58:45.015Z,7.60
2022-12-25T08:01:16.862Z,6.77
2022-12-25T08:03:45.726Z,7.43
2022-12-25T08:06:16.436Z,6.93
2022-12-25T08:08:44.960Z,8.73
2022-12-25T08:11:13.498Z,7.73
2022-12-25T08:13:43.476Z,10.27
2022-12-25T08:16:12.412Z,10.17
2022-12-25T08:18:43.242Z,7.33
2022-12-25T08:21:13.754Z,8.80
2022-12-25T08:23:43.884Z,6.53
2022-12-25T08:26:15.219Z,9.13
2022-12-25T08:28:44.980Z,9.37
2022-12-25T08:31:18.663Z,7.20
2022-12-25T08:33:48.009Z,7.37
2022-12-25T08:36:16.635Z,8.73
2022-12-25T08:38:45.589Z,9.10
2022-12-25T08:41:14.625Z,9.77
2022-12-25T08:43:44.972Z,9.37
2022-12-25T08:46:13.530Z,10.17
2022-12-25T08:48:43.537Z,11.53
2022-12-25T08:51:15.703Z,10.80
2022-12-25T08:53:44.195Z,9.30
2022-12-25T08:56:13.192Z,12.27
2022-12-25T08:58:41.641Z,13.20
2022-12-25T09:01:11.998Z,10.07
2022-12-25T09:03:40.575Z,9.17
2022-12-25T09:06:10.743Z,11.23
2022-12-25T09:08:44.196Z,20.00
2022-12-25T09:11:18.125Z,13.40
2022-12-25T09:13:46.547Z,18.53
2022-12-25T09:16:18.848Z,19.97
2022-12-25T09:18:47.528Z,16.77
2022-12-25T09:21:16.990Z,15.17
2022-12-25T09:23:45.404Z,14.27
2022-12-25T09:26:15.816Z,21.60
2022-12-25T09:28:50.763Z,19.40
2022-12-25T09:31:23.918Z,20.87
2022-12-25T09:33:52.959Z,19.70
2022-12-25T09:36:23.510Z,25.03
2022-12-25T09:38:52.057Z,23.73
2022-12-25T09:41:28.272Z,23.50
2022-12-25T09:44:02.369Z,21.83
2022-12-25T09:46:39.485Z,18.70
2022-12-25T09:49:15.013Z,23.53
2022-12-25T09:51:45.339Z,25.67
2022-12-25T09:54:19.650Z,19.77
2022-12-25T09:56:48.053Z,19.13
2022-12-25T09:59:24.287Z,22.03
2022-12-25T10:02:04.166Z,26.60
2022-12-25T10:04:57.526Z,23.00
2022-12-25T10:07:36.065Z,22.23
2022-12-25T10:10:14.549Z,20.47
2022-12-25T10:12:53.770Z,19.97
2022-12-25T10:15:33.553Z,30.20
2022-12-25T10:18:35.093Z,25.30
2022-12-25T10:21:11.075Z,31.13
2022-12-25T10:23:45.595Z,29.57
2022-12-25T10:26:17.192Z,29.40
2022-12-25T10:28:50.628Z,31.73
2022-12-25T10:31:24.338Z,31.57
2022-12-25T10:33:55.163Z,35.03
2022-12-25T10:36:25.412Z,32.30
2022-12-25T10:38:54.377Z,28.10
2022-12-25T10:41:44.904Z,30.53
2022-12-25T10:44:20.277Z,32.50
2022-12-25T10:46:50.985Z,32.33
2022-12-25T10:49:22.882Z,30.37
2022-12-25T10:51:52.305Z,36.07
2022-12-25T10:54:24.032Z,31.83
2022-12-25T10:56:57.603Z,32.17
2022-12-25T10:59:26.451Z,27.53
2022-12-25T11:01:55.616Z,28.30
2022-12-25T11:04:28.835Z,29.27
2022-12-25T11:07:06.484Z,24.97
2022-12-25T11:09:35.834Z,25.23
2022-12-25T11:12:04.524Z,38.60
2022-12-25T11:14:32.967Z,28.70
2022-12-25T11:17:09.663Z,26.47
2022-12-25T11:19:41.604Z,25.10
2022-12-25T11:22:19.892Z,28.83
2022-12-25T11:24:48.263Z,38.87
2022-12-25T11:27:23.953Z,38.43
2022-12-25T11:29:54.862Z,36.33
2022-12-25T11:32:28.688Z,33.87
2022-12-25T11:34:59.630Z,37.77
2022-12-25T11:37:34.877Z,31.03
2022-12-25T11:40:03.604Z,33.03
2022-12-25T11:42:36.200Z,41.17
2022-12-25T11:45:08.592Z,39.73
2022-12-25T11:47:41.897Z,38.80
2022-12-25T11:50:23.509Z,36.23
2022-12-25T11:52:53.650Z,30.20
2022-12-25T11:55:29.911Z,35.17
2022-12-25T11:58:02.571Z,34.33
2022-12-25T12:00:33.917Z,35.67
2022-12-25T12:03:07.182Z,31.37
2022-12-25T12:05:44.229Z,38.10
2022-12-25T12:08:14.283Z,30.57
2022-12-25T12:10:59.481Z,35.73
2022-12-25T12:13:45.046Z,34.13
2022-12-25T12:16:13.389Z,33.20
2022-12-25T12:18:50.148Z,41.23
2022-12-25T12:21:24.429Z,38.87
2022-12-25T12:23:57.610Z,36.47
2022-12-25T12:26:28.596Z,33.93
2022-12-25T12:29:00.114Z,36.43
2022-12-25T12:31:39.195Z,40.03
2022-12-25T12:34:15.760Z,36.23
2022-12-25T12:36:45.748Z,41.30
2022-12-25T12:39:24.157Z,45.57
2022-12-25T12:41:52.776Z,41.30
2022-12-25T12:44:23.453Z,153.83
2022-12-25T12:46:55.166Z,104.80
2022-12-25T12:49:25.432Z,34.80
2022-12-25T12:52:08.122Z,24.60
2022-12-25T12:54:56.631Z,25.00
2022-12-25T12:57:27.166Z,26.17
2022-12-25T12:59:58.454Z,24.17
2022-12-25T13:02:57.423Z,33.27
2022-12-25T13:05:35.629Z,30.20
2022-12-25T13:08:21.687Z,47.33
2022-12-25T13:10:51.641Z,31.73
2022-12-25T13:13:23.520Z,34.37
2022-12-25T13:15:53.235Z,34.77
2022-12-25T13:18:22.145Z,42.63
2022-12-25T13:20:56.362Z,37.27
2022-12-25T13:23:28.951Z,34.70
2022-12-25T13:25:59.531Z,32.63
2022-12-25T13:28:29.650Z,37.17
2022-12-25T13:31:06.643Z,38.43
2022-12-25T13:33:35.780Z,40.33
2022-12-25T13:36:05.188Z,43.53
2022-12-25T13:38:34.989Z,42.63
2022-12-25T13:41:20.679Z,40.37
2022-12-25T13:43:50.447Z,35.90
2022-12-25T13:46:27.141Z,38.50
2022-12-25T13:49:00.618Z,42.33
2022-12-25T13:51:29.787Z,35.60
2022-12-25T13:54:06.858Z,38.50
2022-12-25T13:56:36.397Z,46.43
2022-12-25T13:59:06.043Z,40.60
2022-12-25T14:01:34.939Z,41.87
2022-12-25T14:04:04.295Z,51.87
2022-12-25T14:06:33.268Z,46.20
2022-12-25T14:09:01.810Z,43.73
2022-12-25T14:11:33.573Z,43.23
2022-12-25T14:14:07.519Z,38.07
2022-12-25T14:16:36.216Z,38.10
2022-12-25T14:19:04.904Z,43.90
2022-12-25T14:21:35.272Z,41.23
2022-12-25T14:24:03.761Z,45.40
2022-12-25T14:26:34.762Z,41.27
2022-12-25T14:29:16.940Z,43.17
2022-12-25T14:31:46.929Z,38.47
2022-12-25T14:34:19.130Z,40.57
2022-12-25T14:36:47.777Z,44.83
2022-12-25T14:39:29.641Z,46.70
2022-12-25T14:41:59.295Z,54.43
2022-12-25T14:44:34.017Z,34.73
2022-12-25T14:47:17.348Z,37.97
2022-12-25T14:49:46.698Z,52.93
2022-12-25T14:52:20.321Z,49.43
2022-12-25T14:54:51.015Z,40.50
2022-12-25T14:57:29.063Z,56.87
2022-12-25T15:00:04.316Z,43.23
2022-12-25T15:02:41.683Z,44.90
2022-12-25T15:05:29.672Z,39.47
2022-12-25T15:08:24.266Z,48.53
2022-12-25T15:11:02.225Z,42.07
2022-12-25T15:13:34.309Z,33.80
2022-12-25T15:16:07.597Z,39.43
2022-12-25T15:18:39.497Z,40.27
2022-12-25T15:21:12.305Z,41.90
2022-12-25T15:23:40.722Z,50.67
2022-12-25T15:26:12.819Z,45.80
2022-12-25T15:28:42.989Z,43.13
2022-12-25T15:31:21.850Z,39.90
2022-12-25T15:33:50.818Z,56.03
2022-12-25T15:36:19.472Z,43.37
2022-12-25T15:38:47.732Z,44.77
2022-12-25T15:41:40.976Z,40.33
2022-12-25T15:44:13.837Z,45.97
2022-12-25T15:46:43.508Z,46.17
2022-12-25T15:49:13.008Z,53.63
2022-12-25T15:51:42.081Z,46.73
2022-12-25T15:54:11.028Z,47.57
2022-12-25T15:56:43.457Z,46.40
2022-12-25T15:59:14.803Z,51.23
2022-12-25T16:01:47.382Z,64.77
2022-12-25T16:04:15.773Z,76.57
2022-12-25T16:06:44.501Z,67.47
2022-12-25T16:09:13.279Z,58.60
2022-12-25T16:11:41.892Z,61.57
2022-12-25T16:14:12.395Z,77.67
2022-12-25T16:16:41.081Z,63.37
2022-12-25T16:19:09.724Z,61.80
2022-12-25T16:21:40.777Z,93.23
2022-12-25T16:24:09.900Z,74.60
2022-12-25T16:26:38.352Z,84.67
2022-12-25T16:29:07.795Z,70.67
2022-12-25T16:31:38.093Z,63.07
2022-12-25T16:34:07.645Z,71.03
2022-12-25T16:36:36.805Z,77.17
2022-12-25T16:39:05.642Z,67.87
2022-12-25T16:41:34.255Z,51.10
2022-12-25T16:44:09.276Z,72.87
2022-12-25T16:46:42.204Z,58.87
2022-12-25T16:49:10.854Z,62.53
2022-12-25T16:51:39.275Z,72.00
2022-12-25T16:54:08.078Z,58.33
2022-12-25T16:56:36.883Z,91.10
2022-12-25T16:59:05.111Z,85.30
2022-12-25T17:01:34.388Z,119.43
2022-12-25T17:04:04.680Z,107.30
2022-12-25T17:06:32.992Z,133.30
2022-12-25T17:09:03.806Z,126.13
2022-12-25T17:11:32.952Z,89.63
2022-12-25T17:14:03.716Z,110.23
2022-12-25T17:16:34.643Z,97.60
2022-12-25T17:19:07.968Z,80.67
2022-12-25T17:21:38.473Z,104.20
2022-12-25T17:24:07.984Z,72.27
2022-12-25T17:26:36.192Z,88.07
2022-12-25T17:29:05.101Z,72.10
2022-12-25T17:31:33.485Z,73.17
2022-12-25T17:34:03.913Z,65.90
2022-12-25T17:36:35.206Z,60.90
2022-12-25T17:39:05.301Z,77.87
2022-12-25T17:41:34.309Z,76.53
2022-12-25T17:44:02.790Z,70.00
2022-12-25T17:46:32.568Z,64.33
2022-12-25T17:49:04.302Z,64.47
2022-12-25T17:51:33.218Z,68.40
2022-12-25T17:54:04.104Z,74.70
2022-12-25T17:56:33.908Z,62.60
2022-12-25T17:59:06.861Z,70.90
2022-12-25T18:01:36.395Z,83.90
2022-12-25T18:04:07.425Z,82.27
2022-12-25T18:06:36.984Z,73.20
2022-12-25T18:09:07.298Z,73.97
2022-12-25T18:11:38.616Z,66.73
2022-12-25T18:14:08.974Z,67.17
2022-12-25T18:16:39.713Z,55.17
2022-12-25T18:19:10.720Z,60.40
2022-12-25T18:21:39.349Z,50.63
2022-12-25T18:24:09.603Z,53.13
2022-12-25T18:26:39.058Z,58.07
2022-12-25T18:29:08.131Z,60.00
2022-12-25T18:31:37.115Z,59.07
2022-12-25T18:34:05.874Z,61.57
2022-12-25T18:36:35.559Z,59.53
2022-12-25T18:39:03.922Z,57.50
2022-12-25T18:41:52.838Z,66.47
2022-12-25T18:44:21.299Z,65.40
2022-12-25T18:46:49.789Z,77.17
2022-12-25T18:49:18.253Z,78.13
2022-12-25T18:51:49.535Z,76.93
2022-12-25T18:54:18.089Z,91.73
2022-12-25T18:56:49.478Z,72.00
2022-12-25T18:59:21.455Z,83.67
2022-12-25T19:01:49.847Z,85.17
2022-12-25T19:04:18.469Z,95.40
2022-12-25T19:06:49.454Z,88.10
2022-12-25T19:09:17.837Z,84.57
2022-12-25T19:11:46.956Z,83.37
2022-12-25T19:14:15.902Z,92.30
2022-12-25T19:16:44.450Z,80.57
2022-12-25T19:19:13.263Z,79.80
2022-12-25T19:21:41.695Z,76.67
2022-12-25T19:24:11.628Z,70.70
2022-12-25T19:26:39.906Z,83.63
2022-12-25T19:29:08.102Z,90.37
2022-12-25T19:31:38.401Z,67.27
2022-12-25T19:34:06.763Z,78.37
2022-12-25T19:36:38.030Z,81.93
2022-12-25T19:39:07.451Z,73.37
2022-12-25T19:41:37.560Z,71.10
2022-12-25T19:44:06.993Z,64.87
2022-12-25T19:46:38.204Z,89.20
2022-12-25T19:49:07.900Z,75.10
2022-12-25T19:51:40.282Z,76.77
2022-12-25T19:54:09.240Z,80.90
2022-12-25T19:56:39.340Z,79.57
2022-12-25T19:59:08.648Z,75.10
2022-12-25T20:01:38.895Z,77.37
2022-12-25T20:04:08.831Z,78.43
2022-12-25T20:06:39.524Z,92.20
2022-12-25T20:09:09.647Z,84.93
2022-12-25T20:11:39.844Z,82.23
2022-12-25T20:14:09.711Z,94.37
2022-12-25T20:16:38.760Z,79.63
2022-12-25T20:19:08.161Z,74.83
2022-12-25T20:21:36.938Z,83.33
2022-12-25T20:24:09.242Z,80.87
2022-12-25T20:26:40.352Z,75.87
2022-12-25T20:29:08.794Z,76.47
2022-12-25T20:31:37.219Z,100.63
2022-12-25T20:34:08.143Z,88.77
2022-12-25T20:36:38.003Z,89.00
2022-12-25T20:39:10.067Z,89.43
2022-12-25T20:41:40.878Z,67.43
2022-12-25T20:44:10.224Z,76.30
2022-12-25T20:46:39.431Z,54.40
2022-12-25T20:49:07.961Z,51.97
2022-12-25T20:51:36.429Z,42.17
2022-12-25T20:54:08.905Z,36.80
2022-12-25T20:56:37.709Z,32.83
2022-12-25T20:59:07.552Z,35.80
2022-12-25T21:01:36.279Z,37.10
2022-12-25T21:04:04.741Z,31.77
2022-12-25T21:06:33.248Z,31.27
2022-12-25T21:09:01.656Z,28.10
2022-12-25T21:11:31.390Z,26.10
2022-12-25T21:14:00.143Z,27.73
2022-12-25T21:16:30.067Z,23.73
2022-12-25T21:18:58.321Z,27.37
2022-12-25T21:21:26.845Z,24.70
2022-12-25T21:23:58.067Z,25.10
2022-12-25T21:26:28.732Z,21.10
2022-12-25T21:29:00.406Z,21.17
2022-12-25T21:31:51.820Z,19.73
2022-12-25T21:34:19.347Z,24.63
2022-12-25T21:36:47.839Z,19.67
2022-12-25T21:39:16.458Z,20.27
2022-12-25T21:41:45.101Z,20.87
2022-12-25T21:44:13.890Z,20.37
2022-12-25T21:46:43.706Z,20.10
2022-12-25T21:49:12.141Z,20.37
2022-12-25T21:52:12.566Z,23.00
2022-12-25T21:54:41.142Z,22.20
2022-12-25T21:57:12.415Z,21.27
2022-12-25T21:59:40.778Z,18.43
2022-12-25T22:02:15.439Z,23.77
2022-12-25T22:04:43.929Z,19.33
2022-12-25T22:07:19.968Z,24.07
2022-12-25T22:09:49.519Z,26.13
2022-12-25T22:12:37.441Z,26.73
2022-12-25T22:15:07.513Z,33.93
2022-12-25T22:17:56.510Z,32.27
2022-12-25T22:20:26.825Z,34.57
2022-12-25T22:22:55.667Z,41.20
2022-12-25T22:25:24.607Z,37.67
2022-12-25T22:27:53.259Z,34.63
2022-12-25T22:30:24.266Z,45.20
2022-12-25T22:32:56.841Z,45.50
2022-12-25T22:35:25.658Z,45.30
2022-12-25T22:37:54.642Z,55.77
2022-12-25T22:40:23.342Z,56.20
2022-12-25T22:42:55.416Z,63.00
2022-12-25T22:45:23.763Z,65.60
2022-12-25T22:47:53.513Z,65.67
2022-12-25T22:50:22.060Z,66.23
2022-12-25T22:52:50.483Z,66.70
2022-12-25T22:55:20.408Z,71.83
2022-12-25T22:57:50.387Z,75.53
2022-12-25T23:00:18.716Z,57.50
2022-12-25T23:02:47.679Z,77.87
2022-12-25T23:05:18.047Z,68.43
2022-12-25T23:07:46.341Z,56.33
2022-12-25T23:10:14.769Z,62.80
2022-12-25T23:13:00.689Z,62.10
2022-12-25T23:15:29.866Z,70.70
2022-12-25T23:18:15.919Z,65.57
2022-12-25T23:21:03.293Z,58.07
2022-12-25T23:23:49.091Z,58.40
2022-12-25T23:26:19.977Z,66.20
2022-12-25T23:29:08.256Z,59.73
2022-12-25T23:31:39.906Z,50.60
2022-12-25T23:34:09.839Z,60.40
2022-12-25T23:36:39.517Z,47.57
2022-12-25T23:39:10.319Z,40.27
2022-12-25T23:41:39.703Z,37.30
2022-12-25T23:44:08.832Z,44.53
2022-12-25T23:46:37.368Z,34.90
2022-12-25T23:49:06.587Z,39.00
2022-12-25T23:51:36.502Z,40.07
2022-12-25T23:54:07.058Z,31.97
2022-12-25T23:56:35.508Z,30.80
2022-12-25T23:59:04.350Z,24.13
